Terminal Aerodrome Forecast
Issued by NWS

Home | Current Version | Previous Version | Text Only | Print | Product List | Glossary On
Versions: 1 2 3 4 5 6 7 8 9 10 11 12 13 14 15 16
115
FTUS41 KBTV 290149 AAA
TAFRUT
TAF AMD
KRUT 290149Z 2902/2924 03004KT P6SM VCSH OVC006
      TEMPO 2902/2904 1SM -RA BR OVC002
     FM290400 01004KT P6SM OVC008
     FM291000 34004KT P6SM BKN020
     FM291200 32004KT P6SM SCT015
     FM291700 33010G17KT P6SM BKN035=

USA.gov is the U.S. government's official web portal to all federal, state and local government web resources and services.